Hovedside
METAR-TAF:

METAR-TAF

Lufthavner :

OR Tambo internasjonale lufthavn

Johannesburg, Sør-Afrika

breddegrad: 26-08S, lengdegrad: 028-14E, høyde over havet: 1694 m

Gjeldene værobservasjon

Denne rapporten ble laget for 11 minutter siden, klokken 03:30 UTC
Vind 3 kt fra Sør-sørøst
Temperatur 5°C
Luftfuktighet 87%
Trykk 1030 hPa
Sikt: 9000 m

METAR: FAOR 140330Z 15003KT 9000 NSC 05/03 Q1030 NOSIG

Tid: 05:41 (03:41 UTC)

Varsel

Denne rapporten ble laget for 5 timer og 41 minutter siden, klokken 22:00 UTC
Varsel gyldig fra 14. klokken 00 UTC til 15. klokken 06 UTC
Vind 3 kt fra skiftende retning
Sikt 10 km eller mer
ingen skyer under 1500 m og ingen bygeskyer

TAF: FAOR 132200Z 1400/1506 VRB03KT CAVOK TX18/1412Z TN06/1404Z

Værobservasjoner og værvarsel for over 4000 flyplasser (METAR- og TAF-rapporter).

Tilgjengelige stasjoner er representert av de røde og gule prikkene på kartet.

Hold musepekeren over prikken for å se navnet på stasjonen.

Klikk så for å se værobservasjoner og -varsler.

For å forandre kartet kan du klikke på den grønne knappen med svart kryss for å zoome inn, på den grønne knappen med strek for å zoome ut, eller på de grønne pilene for å se tilstøtende kart.


METAR-TAF: